Marysville, KS (66508)

6:38 PM CDT on September 03, 2015 (GMT -0500)
N0NB | | Change Station
CLOSE
Current Station
Personal Weather Station
Location: Bremen, KS
Elevation: 1318 ft
Nearby Weather Stations

Elev 1318 ft 39.91 °N, 96.77 °W | Updated 24 seconds ago

Clear
Clear
89.5 °F
Feels Like 94 °F
N
7.0
Wind Variable Wind from SSE
Gusts 11.0 mph

Today
High -- | Low -- °F
--% Chance of Precip.
Yesterday
High -- | Low -- °F
Precip. -- in
6:56 AM 7:55 PM
Waning Gibbous, 66% visible
Pressure 29.80 in
Visibility 10.0 miles
Clouds Clear
Heat Index 94 °F
Dew Point 69 °F
Humidity 51%
Rainfall 0.00 in
Snow Depth Not available.
UV 1 out of 12
Pollen 11.30 out of 12
Air Quality Not available.
Flu Activity Not available.
METAR KBIE 032315Z AUTO 17011KT 10SM CLR 32/20 A2980 RMK AO2 LTG DSNT NW T03240196
Pressure 29.80 in
Visibility 10.0 miles
Clouds Clear
Heat Index 94 °F
Dew Point 69 °F
Humidity 51%
Rainfall 0.00 in
Snow Depth Not available.
UV 1 out of 12
Pollen 11.30 out of 12
Air Quality Not available.
Flu Activity Not available.
METAR KBIE 032315Z AUTO 17011KT 10SM CLR 32/20 A2980 RMK AO2 LTG DSNT NW T03240196

10-Day Weather Forecast

×

Almanac

Astronomy

Sep. 03, 2015 Rise Set
Actual Time
Civil Twilight
Nautical Twilight
Astronomical Twilight
Moon
Length of Visible Light
Length of Day
Tomorrow will be .
, % of the Moon is Illuminated

Today's Extremes

State Highs State Lows

Community

WunderPhotos

Upload Photos

1,852,063 photos uploaded!

WunderBlogs® & News

Nearby

Air Quality

  Air Quality AQ Index Pollutant
Not available.

Snow Depth

Station Depth Elevation

Earthquake Activity

City Distance Mag. Time & Date
Minimum magnitude displayed is 2.5.

Coastal Water Temperatures

Place Temperature

Stations

Nearby Weather Stations

Station Location Temp. Windchill Dew Point Humidity Wind Precip. Elev Updated Type